Time;durP1;ratioP1;P1;durP2;ratioP2;P2;SDS_P1;SDS_P2;PMS_P1;PMS_P2;Temp;Humidity;BMP_temperature;BMP_pressure;BME280_temperature;BME280_humidity;BME280_pressure;Samples;Min_cycle;Max_cycle;Signal;HPM_P1;HPM_P2
2022/01/11 00:01:46;;;;;;;159.52;70.55;;;0.60;99.90;;;;;;4974022;28;20416;-74
2022/01/11 00:04:15;;;;;;;153.77;68.05;;;0.60;99.90;;;;;;4974169;28;20457;-75
2022/01/11 00:06:45;;;;;;;157.65;65.47;;;0.60;99.90;;;;;;4974174;28;20031;-76
2022/01/11 00:09:33;;;;;;;156.15;64.82;;;0.60;99.90;;;;;;4974096;28;20048;-75
2022/01/11 00:12:00;;;;;;;150.25;61.75;;;0.70;99.90;;;;;;4973831;28;20378;-75
2022/01/11 00:14:26;;;;;;;145.27;59.70;;;0.60;99.90;;;;;;4974319;28;20039;-75
2022/01/11 00:16:52;;;;;;;143.60;62.67;;;0.60;99.90;;;;;;4974195;28;20023;-75
2022/01/11 00:19:18;;;;;;;143.43;59.95;;;0.70;99.90;;;;;;4974219;28;20027;-76
2022/01/11 00:21:46;;;;;;;140.60;59.55;;;0.60;99.90;;;;;;4974175;28;20117;-76
2022/01/11 00:27:01;;;;;;;130.45;57.83;;;0.60;99.90;;;;;;4973961;28;20045;-75
2022/01/11 00:29:28;;;;;;;131.60;56.40;;;0.70;99.90;;;;;;4973449;28;20027;-75
2022/01/11 00:31:58;;;;;;;131.80;57.03;;;0.70;99.90;;;;;;4972592;28;20045;-75
2022/01/11 00:34:25;;;;;;;134.30;56.83;;;0.70;99.90;;;;;;4972415;28;20037;-75
2022/01/11 00:36:51;;;;;;;133.63;57.47;;;0.70;99.90;;;;;;4972267;28;20054;-75
2022/01/11 00:39:17;;;;;;;140.80;60.00;;;0.70;99.90;;;;;;4972291;28;20062;-76
2022/01/11 00:41:44;;;;;;;138.10;58.20;;;0.70;99.90;;;;;;4972117;28;20377;-76
2022/01/11 00:44:10;;;;;;;127.40;54.97;;;0.70;99.90;;;;;;4972573;28;20031;-76
2022/01/11 00:46:36;;;;;;;134.85;58.50;;;0.70;99.90;;;;;;4972278;28;20105;-76
2022/01/11 00:49:03;;;;;;;129.73;55.80;;;0.70;99.90;;;;;;4972204;28;20069;-76
2022/01/11 00:51:29;;;;;;;131.55;56.63;;;0.70;99.90;;;;;;4972225;28;20027;-75
2022/01/11 00:53:55;;;;;;;145.70;59.10;;;0.70;99.90;;;;;;4971946;28;20108;-76
2022/01/11 00:56:21;;;;;;;138.55;59.90;;;0.70;99.90;;;;;;4972295;28;20066;-76
2022/01/11 00:58:47;;;;;;;145.02;60.60;;;0.70;99.90;;;;;;4972178;28;20416;-76
2022/01/11 01:01:14;;;;;;;137.32;55.67;;;0.70;99.90;;;;;;4971880;28;20027;-76
2022/01/11 01:03:39;;;;;;;160.15;64.15;;;0.70;99.90;;;;;;4971592;28;20088;-76
2022/01/11 01:06:06;;;;;;;138.20;59.03;;;0.70;99.90;;;;;;4971971;28;20031;-75
2022/01/11 01:08:32;;;;;;;134.00;55.83;;;0.70;99.90;;;;;;4971985;28;20034;-76
2022/01/11 01:10:57;;;;;;;152.32;62.47;;;0.60;99.90;;;;;;4972365;28;20026;-76
2022/01/11 01:13:27;;;;;;;134.63;55.45;;;0.70;99.90;;;;;;4971949;28;20446;-76
2022/01/11 01:15:55;;;;;;;137.25;58.00;;;0.70;99.90;;;;;;4971926;28;20022;-76
2022/01/11 01:18:29;;;;;;;165.35;70.57;;;0.70;99.90;;;;;;4971913;28;20034;-76
2022/01/11 01:20:55;;;;;;;148.50;62.42;;;0.70;99.90;;;;;;4971969;28;20065;-76
2022/01/11 01:23:23;;;;;;;148.70;64.55;;;0.70;99.90;;;;;;4970535;28;20473;-76
2022/01/11 01:25:49;;;;;;;144.63;63.75;;;0.70;99.90;;;;;;4970543;28;20046;-76
2022/01/11 01:28:15;;;;;;;152.88;63.70;;;0.70;99.90;;;;;;4971837;28;20033;-76
2022/01/11 01:30:41;;;;;;;142.13;61.42;;;0.70;99.90;;;;;;4971884;28;20031;-76
2022/01/11 01:33:07;;;;;;;139.10;58.70;;;0.70;99.90;;;;;;4971527;28;20039;-76
2022/01/11 01:35:39;;;;;;;127.75;53.42;;;0.70;99.90;;;;;;4971782;28;20025;-76
2022/01/11 01:38:06;;;;;;;;;;;0.70;99.90;;;;;;4971697;28;20037;-76
2022/01/11 01:40:37;;;;;;;118.38;47.05;;;0.70;99.90;;;;;;4971645;28;19906;-76
2022/01/11 01:43:05;;;;;;;123.63;53.92;;;0.60;99.90;;;;;;4970712;28;20417;-76
2022/01/11 01:45:31;;;;;;;116.60;52.90;;;0.70;99.90;;;;;;4970876;28;20050;-76
2022/01/11 01:47:58;;;;;;;132.20;57.83;;;0.70;99.90;;;;;;4970338;28;20382;-76
2022/01/11 01:50:26;;;;;;;122.38;54.28;;;0.70;99.90;;;;;;4969230;28;20031;-76
2022/01/11 01:52:54;;;;;;;116.50;52.72;;;0.70;99.90;;;;;;4970707;28;20062;-76
2022/01/11 01:55:20;;;;;;;108.72;48.90;;;0.70;99.90;;;;;;4970432;28;20034;-76
2022/01/11 01:57:46;;;;;;;102.70;43.58;;;0.70;99.90;;;;;;4967697;28;20030;-76
2022/01/11 02:00:13;;;;;;;88.95;37.17;;;0.60;99.90;;;;;;4970414;28;20023;-76
2022/01/11 02:02:39;;;;;;;93.53;39.40;;;0.60;99.90;;;;;;4970257;28;20027;-76
2022/01/11 02:05:06;;;;;;;81.30;37.50;;;0.60;99.90;;;;;;4970279;28;20843;-76
2022/01/11 02:07:33;;;;;;;77.60;34.45;;;0.60;99.90;;;;;;4970737;28;20497;-76
2022/01/11 02:10:01;;;;;;;81.80;36.85;;;0.50;99.90;;;;;;4969223;28;20030;-76
2022/01/11 02:12:28;;;;;;;87.10;36.42;;;0.60;99.90;;;;;;4967603;28;20022;-76
2022/01/11 02:14:54;;;;;;;85.13;36.38;;;0.60;99.90;;;;;;4970039;28;20023;-76
2022/01/11 02:17:19;;;;;;;86.72;36.45;;;0.60;99.90;;;;;;4970138;28;20038;-76
2022/01/11 02:19:45;;;;;;;83.97;34.83;;;0.60;99.90;;;;;;4969854;28;20039;-76
2022/01/11 02:22:11;;;;;;;86.35;37.35;;;0.60;99.90;;;;;;4969862;28;20065;-76
2022/01/11 02:24:37;;;;;;;80.60;33.10;;;0.60;99.90;;;;;;4970275;28;20088;-76
2022/01/11 02:27:03;;;;;;;83.30;36.17;;;0.60;99.90;;;;;;4970052;28;20080;-76
2022/01/11 02:29:29;;;;;;;81.07;35.33;;;0.50;99.90;;;;;;4970137;28;20023;-76
2022/01/11 02:31:56;;;;;;;82.72;35.08;;;0.60;99.90;;;;;;4969687;28;20070;-76
2022/01/11 02:34:22;;;;;;;77.13;34.20;;;0.60;99.90;;;;;;4970132;28;20034;-76
2022/01/11 02:36:48;;;;;;;79.38;34.90;;;0.50;99.90;;;;;;4969773;28;20027;-75
2022/01/11 02:39:14;;;;;;;94.55;38.38;;;0.60;99.90;;;;;;4969919;28;20019;-75
2022/01/11 02:44:21;;;;;;;85.57;36.78;;;0.60;99.90;;;;;;5069265;28;20951;-76
2022/01/11 02:46:47;;;;;;;90.93;38.58;;;0.60;99.90;;;;;;5060082;28;20021;-76
2022/01/11 02:49:13;;;;;;;85.20;33.85;;;0.60;99.90;;;;;;5069044;28;20021;-76
2022/01/11 02:51:39;;;;;;;79.18;32.65;;;0.60;99.90;;;;;;5070759;28;20053;-76
2022/01/11 02:54:05;;;;;;;77.32;32.03;;;0.60;99.90;;;;;;5070805;28;20376;-76
2022/01/11 02:56:31;;;;;;;65.85;31.33;;;0.60;99.90;;;;;;5070811;28;20415;-76
2022/01/11 02:58:58;;;;;;;74.35;31.50;;;0.60;99.90;;;;;;5070668;28;20029;-76
2022/01/11 03:01:24;;;;;;;82.82;33.13;;;0.70;99.90;;;;;;5069617;28;20387;-76
2022/01/11 03:03:51;;;;;;;78.55;33.88;;;0.60;99.90;;;;;;5070369;28;20028;-76
2022/01/11 03:06:17;;;;;;;78.53;33.25;;;0.70;99.90;;;;;;5070821;28;20075;-76
2022/01/11 03:08:46;;;;;;;81.00;35.42;;;0.70;99.90;;;;;;5070513;28;20021;-76
2022/01/11 03:11:15;;;;;;;82.75;36.42;;;0.70;99.90;;;;;;5070307;28;20033;-76
2022/01/11 03:13:43;;;;;;;76.57;33.42;;;0.70;99.90;;;;;;5070659;28;20028;-76
2022/01/11 03:16:10;;;;;;;80.45;32.50;;;0.70;99.90;;;;;;5070473;28;20166;-76
2022/01/11 03:18:35;;;;;;;72.47;31.60;;;0.60;99.90;;;;;;5070450;28;20025;-76
2022/01/11 03:21:02;;;;;;;78.18;31.67;;;0.70;99.90;;;;;;5070343;28;20024;-76
2022/01/11 03:23:28;;;;;;;69.88;29.48;;;0.70;99.90;;;;;;5070525;28;20040;-76
2022/01/11 03:25:54;;;;;;;80.03;32.53;;;0.70;99.90;;;;;;5070362;28;20029;-76
2022/01/11 03:28:21;;;;;;;79.93;32.58;;;0.70;99.90;;;;;;5070130;28;20025;-76
2022/01/11 03:30:47;;;;;;;68.28;30.95;;;0.70;99.90;;;;;;5070489;28;20029;-76
2022/01/11 03:33:13;;;;;;;82.07;37.83;;;0.70;99.90;;;;;;5070133;28;20487;-76
2022/01/11 03:35:41;;;;;;;59.42;28.58;;;0.70;99.90;;;;;;5069595;28;20021;-76
2022/01/11 03:38:09;;;;;;;70.47;29.10;;;0.70;99.90;;;;;;5069948;28;20059;-76
2022/01/11 03:40:35;;;;;;;65.85;30.60;;;0.70;99.90;;;;;;5069946;28;20021;-76
2022/01/11 03:43:02;;;;;;;61.30;27.92;;;0.70;99.90;;;;;;5069398;28;20045;-76
2022/01/11 03:45:28;;;;;;;59.47;27.25;;;0.70;99.90;;;;;;5069803;28;20025;-76
2022/01/11 03:47:57;;;;;;;67.95;28.63;;;0.70;99.90;;;;;;5069544;28;20070;-76
2022/01/11 03:50:24;;;;;;;62.38;27.05;;;0.70;99.90;;;;;;5069345;28;20049;-76
2022/01/11 03:52:59;;;;;;;57.50;26.55;;;0.70;99.90;;;;;;5069640;28;20044;-76
2022/01/11 03:55:46;;;;;;;63.85;27.92;;;0.70;99.90;;;;;;5058086;28;20107;-76
2022/01/11 03:58:14;;;;;;;68.95;27.88;;;0.60;99.90;;;;;;5056675;28;20060;-76
2022/01/11 04:00:40;;;;;;;63.60;27.30;;;0.60;99.90;;;;;;5055037;28;20468;-76
2022/01/11 04:03:06;;;;;;;75.57;31.65;;;0.60;99.90;;;;;;5055927;28;20051;-76
2022/01/11 04:05:32;;;;;;;85.85;34.20;;;0.60;99.90;;;;;;5056314;28;20465;-76
2022/01/11 04:07:58;;;;;;;84.97;34.33;;;0.60;99.90;;;;;;5055995;28;20025;-76
2022/01/11 04:10:24;;;;;;;76.22;31.77;;;0.60;99.90;;;;;;5056013;28;20124;-76
2022/01/11 04:12:50;;;;;;;81.95;34.42;;;0.50;99.90;;;;;;5056322;28;20025;-76
2022/01/11 04:15:17;;;;;;;89.05;35.47;;;0.50;99.90;;;;;;5056129;28;20028;-76
2022/01/11 04:17:43;;;;;;;76.60;30.67;;;0.60;99.90;;;;;;5055651;28;20522;-76
2022/01/11 04:20:09;;;;;;;94.35;39.03;;;0.50;99.90;;;;;;5055870;28;20048;-76
2022/01/11 04:22:35;;;;;;;88.90;38.53;;;0.50;99.90;;;;;;5055843;28;20094;-76
2022/01/11 04:25:02;;;;;;;93.95;38.80;;;0.50;99.90;;;;;;5055820;28;20643;-76
2022/01/11 04:27:28;;;;;;;72.70;32.05;;;0.50;99.90;;;;;;5055867;28;20024;-76
2022/01/11 04:29:54;;;;;;;64.32;28.52;;;0.50;99.90;;;;;;5055651;28;20025;-76
2022/01/11 04:32:19;;;;;;;72.68;30.85;;;0.50;99.90;;;;;;5055733;28;20039;-76
2022/01/11 04:34:45;;;;;;;80.18;32.63;;;0.40;99.90;;;;;;5055545;28;20057;-76
2022/01/11 04:37:11;;;;;;;84.88;35.20;;;0.40;99.90;;;;;;5055601;28;20502;-76
2022/01/11 04:39:36;;;;;;;97.50;41.78;;;0.40;99.90;;;;;;5055209;28;20099;-76
2022/01/11 04:42:02;;;;;;;101.70;43.97;;;0.40;99.90;;;;;;5055338;28;20060;-76
2022/01/11 04:44:28;;;;;;;93.72;40.13;;;0.40;99.90;;;;;;5055693;28;20514;-76
2022/01/11 04:46:54;;;;;;;85.00;36.00;;;0.50;99.90;;;;;;5054462;28;20055;-76
2022/01/11 04:49:21;;;;;;;94.85;36.65;;;0.40;99.90;;;;;;5055503;28;20025;-76
2022/01/11 04:51:46;;;;;;;92.82;38.63;;;0.40;99.90;;;;;;5055566;28;20504;-76
2022/01/11 04:54:12;;;;;;;94.30;40.95;;;0.40;99.90;;;;;;5055460;28;20108;-76
2022/01/11 04:56:38;;;;;;;89.78;38.22;;;0.40;99.90;;;;;;5054964;28;20025;-76
2022/01/11 04:59:04;;;;;;;94.70;38.38;;;0.40;99.90;;;;;;5055050;28;20064;-76
2022/01/11 05:01:31;;;;;;;93.78;38.25;;;0.40;99.90;;;;;;5055337;28;20025;-76
2022/01/11 05:03:57;;;;;;;86.25;35.63;;;0.40;99.90;;;;;;5055198;28;20037;-76
2022/01/11 05:06:23;;;;;;;72.15;32.97;;;0.40;99.90;;;;;;5054015;28;20032;-77
2022/01/11 05:08:49;;;;;;;81.40;33.53;;;0.30;99.90;;;;;;5054932;28;20028;-77
2022/01/11 05:11:15;;;;;;;83.95;34.72;;;0.40;99.90;;;;;;5055021;28;20029;-77
2022/01/11 05:13:41;;;;;;;85.70;35.72;;;0.30;99.90;;;;;;5054442;28;20025;-76
2022/01/11 05:16:08;;;;;;;81.32;35.20;;;0.40;99.90;;;;;;5053752;28;20086;-78
2022/01/11 05:18:36;;;;;;;81.43;35.60;;;0.40;99.90;;;;;;5054845;28;20029;-76
2022/01/11 05:21:05;;;;;;;97.25;42.00;;;0.40;99.90;;;;;;5054419;28;20025;-76
2022/01/11 05:23:32;;;;;;;98.03;42.90;;;0.30;99.90;;;;;;5054449;28;20037;-76
2022/01/11 05:25:58;;;;;;;101.05;43.45;;;0.30;99.90;;;;;;5054933;28;20029;-76
2022/01/11 05:28:24;;;;;;;106.38;45.08;;;0.30;99.90;;;;;;5054801;28;20601;-76
2022/01/11 05:30:50;;;;;;;80.97;34.78;;;0.30;99.90;;;;;;5054621;28;20368;-76
2022/01/11 05:33:16;;;;;;;79.25;32.38;;;0.30;99.90;;;;;;5054453;28;20391;-76
2022/01/11 05:35:42;;;;;;;87.45;36.80;;;0.20;99.90;;;;;;5054419;28;20104;-76
2022/01/11 05:38:07;;;;;;;68.35;30.40;;;0.20;99.90;;;;;;5054661;28;20036;-76
2022/01/11 05:40:33;;;;;;;73.00;31.60;;;0.10;99.90;;;;;;5054556;28;20033;-76
2022/01/11 05:42:59;;;;;;;76.38;35.20;;;0.10;99.90;;;;;;5053909;28;20057;-76
2022/01/11 05:45:25;;;;;;;98.10;41.45;;;0.20;99.90;;;;;;5054393;28;20464;-76
2022/01/11 05:47:52;;;;;;;100.50;42.63;;;0.10;99.90;;;;;;5053940;28;20078;-76
2022/01/11 05:50:19;;;;;;;92.82;39.53;;;0.10;99.90;;;;;;5054091;28;20023;-76
2022/01/11 05:52:46;;;;;;;95.05;40.55;;;0.10;99.90;;;;;;5054210;28;20495;-76
2022/01/11 05:55:13;;;;;;;81.53;32.75;;;0.10;99.90;;;;;;5054016;28;20039;-76
2022/01/11 05:57:41;;;;;;;82.18;34.55;;;0.10;99.90;;;;;;5054284;28;20456;-76
2022/01/11 06:00:11;;;;;;;85.18;35.67;;;0.10;99.90;;;;;;5053811;28;20488;-76
2022/01/11 06:02:36;;;;;;;84.13;34.50;;;0.10;99.90;;;;;;5054198;28;20040;-76
2022/01/11 06:05:03;;;;;;;76.05;32.75;;;0.00;99.90;;;;;;5053280;28;20400;-76
2022/01/11 06:07:28;;;;;;;64.93;28.08;;;0.00;99.90;;;;;;5053304;28;20081;-76
2022/01/11 06:09:54;;;;;;;77.57;34.50;;;0.00;99.90;;;;;;5052987;28;20057;-76
2022/01/11 06:12:20;;;;;;;85.20;38.28;;;0.00;99.90;;;;;;5052996;28;20025;-75
2022/01/11 06:14:46;;;;;;;92.18;40.17;;;0.00;99.90;;;;;;5053486;28;20380;-76
2022/01/11 06:17:11;;;;;;;95.25;42.75;;;0.00;99.90;;;;;;5052969;28;20032;-76
2022/01/11 06:19:37;;;;;;;108.03;47.00;;;0.10;99.90;;;;;;5053307;28;20107;-76
2022/01/11 06:22:03;;;;;;;119.80;52.25;;;0.10;99.90;;;;;;5053875;28;20488;-76
2022/01/11 06:24:29;;;;;;;129.10;53.80;;;0.00;99.90;;;;;;5053364;28;20037;-76
2022/01/11 06:26:55;;;;;;;185.88;82.00;;;0.10;99.90;;;;;;5053713;28;20029;-76
2022/01/11 06:29:20;;;;;;;250.73;115.15;;;0.10;99.90;;;;;;5054148;28;20032;-76
2022/01/11 06:31:46;;;;;;;196.07;97.95;;;0.10;99.90;;;;;;5053284;28;20033;-76
2022/01/11 06:34:12;;;;;;;212.82;120.40;;;0.10;99.90;;;;;;5053669;28;20072;-75
2022/01/11 06:36:38;;;;;;;208.70;113.20;;;0.10;99.90;;;;;;5053626;28;20021;-76
2022/01/11 06:39:04;;;;;;;237.52;136.48;;;0.20;99.90;;;;;;5053741;28;20037;-76
2022/01/11 06:41:30;;;;;;;136.52;63.95;;;0.20;99.90;;;;;;5053295;28;20059;-76
2022/01/11 06:43:56;;;;;;;99.43;42.63;;;0.10;99.90;;;;;;5053603;28;20538;-76
2022/01/11 06:46:23;;;;;;;147.40;67.85;;;0.10;99.90;;;;;;5053293;28;20480;-75
2022/01/11 06:48:51;;;;;;;151.55;68.80;;;0.10;99.90;;;;;;5053888;28;20025;-76
2022/01/11 06:51:17;;;;;;;120.65;56.42;;;0.20;99.90;;;;;;5053377;28;20021;-76
2022/01/11 06:53:43;;;;;;;113.70;51.20;;;0.10;99.90;;;;;;5053548;28;20029;-76
2022/01/11 06:56:09;;;;;;;87.30;41.35;;;0.20;99.90;;;;;;5053189;28;20078;-76
2022/01/11 06:58:34;;;;;;;92.10;42.58;;;0.10;99.90;;;;;;5053016;28;20032;-76
2022/01/11 07:01:00;;;;;;;100.30;44.70;;;0.10;99.90;;;;;;5053493;28;20092;-77
2022/01/11 07:03:27;;;;;;;145.38;63.47;;;0.10;99.90;;;;;;5052862;28;20048;-77
2022/01/11 07:05:53;;;;;;;227.02;93.20;;;0.10;99.90;;;;;;5052839;28;20383;-77
2022/01/11 07:08:19;;;;;;;139.60;59.67;;;0.10;99.90;;;;;;5053177;28;20025;-77
2022/01/11 07:10:45;;;;;;;154.32;68.07;;;0.10;99.90;;;;;;5053120;28;20107;-77
2022/01/11 07:13:11;;;;;;;225.75;103.72;;;0.10;99.90;;;;;;5052894;28;20029;-77
2022/01/11 07:15:37;;;;;;;179.88;74.20;;;0.10;99.90;;;;;;5053538;28;20096;-77
2022/01/11 07:18:08;;;;;;;119.60;56.03;;;0.20;99.90;;;;;;5053085;28;20021;-77
2022/01/11 07:20:34;;;;;;;;;;;0.20;99.90;;;;;;5053624;28;20058;-77
2022/01/11 07:23:00;;;;;;;139.23;63.95;;;0.20;99.90;;;;;;5053119;28;19913;-77
2022/01/11 07:25:30;;;;;;;144.55;68.18;;;0.30;99.90;;;;;;5053341;28;20020;-77
2022/01/11 07:27:56;;;;;;;221.30;109.70;;;0.30;99.90;;;;;;5052727;28;20026;-77
2022/01/11 07:30:24;;;;;;;157.23;81.22;;;0.30;99.90;;;;;;5055387;28;20061;-77
2022/01/11 07:32:50;;;;;;;192.65;96.20;;;0.40;99.90;;;;;;5056520;28;20029;-77
2022/01/11 07:35:16;;;;;;;144.98;70.43;;;0.40;99.90;;;;;;5056991;28;20027;-77
2022/01/11 07:37:41;;;;;;;136.55;69.10;;;0.40;99.90;;;;;;5056523;28;20033;-77
2022/01/11 07:40:08;;;;;;;118.32;57.58;;;0.40;99.90;;;;;;5056702;28;20021;-77
2022/01/11 07:42:34;;;;;;;91.53;45.72;;;0.40;99.90;;;;;;5056535;28;20128;-76
2022/01/11 07:44:59;;;;;;;93.20;45.63;;;0.40;99.90;;;;;;5056776;28;20096;-77
2022/01/11 07:47:25;;;;;;;110.07;54.67;;;0.40;99.90;;;;;;5056514;28;20029;-75
2022/01/11 07:49:52;;;;;;;125.63;59.13;;;0.40;99.90;;;;;;5056709;28;20036;-76
2022/01/11 07:52:17;;;;;;;181.35;76.50;;;0.40;99.90;;;;;;5056269;28;20093;-76
2022/01/11 07:54:43;;;;;;;176.35;80.00;;;0.40;99.90;;;;;;5056371;28;20104;-76
2022/01/11 07:57:09;;;;;;;244.48;107.85;;;0.40;99.90;;;;;;5056261;28;20040;-77
2022/01/11 07:59:35;;;;;;;253.48;108.57;;;0.50;99.90;;;;;;5055020;28;20029;-77
2022/01/11 08:02:03;;;;;;;337.85;147.35;;;0.50;99.90;;;;;;5056129;28;20021;-76
2022/01/11 08:04:30;;;;;;;304.77;136.18;;;0.50;99.90;;;;;;5055036;28;20044;-76
2022/01/11 08:06:57;;;;;;;225.88;95.47;;;0.50;99.90;;;;;;5056457;28;20025;-77
2022/01/11 08:09:24;;;;;;;214.93;95.85;;;0.60;99.90;;;;;;5055817;28;20460;-77
2022/01/11 08:11:50;;;;;;;216.68;94.70;;;0.60;99.90;;;;;;5054902;28;20468;-77
2022/01/11 08:14:17;;;;;;;216.05;100.18;;;0.60;99.90;;;;;;5056067;28;20025;-77
2022/01/11 08:16:42;;;;;;;168.43;77.93;;;0.60;99.90;;;;;;5054651;28;20128;-77
2022/01/11 08:19:08;;;;;;;163.88;74.00;;;0.70;99.90;;;;;;5056020;28;20100;-77
2022/01/11 08:21:34;;;;;;;139.05;63.75;;;0.60;99.90;;;;;;5055760;28;20025;-77
2022/01/11 08:24:00;;;;;;;126.57;56.85;;;0.60;99.90;;;;;;5055750;28;20037;-77
2022/01/11 08:26:26;;;;;;;114.68;52.67;;;0.60;99.90;;;;;;5055676;28;20025;-77
2022/01/11 08:28:52;;;;;;;113.22;52.45;;;0.60;99.90;;;;;;5055507;28;20446;-77
2022/01/11 08:31:19;;;;;;;100.97;47.90;;;0.60;99.90;;;;;;5055990;28;20090;-77
2022/01/11 08:33:46;;;;;;;116.43;50.63;;;0.60;99.90;;;;;;5055741;28;20039;-77
2022/01/11 08:36:11;;;;;;;138.80;64.15;;;0.60;99.90;;;;;;5055344;28;20453;-77
2022/01/11 08:38:37;;;;;;;106.47;49.75;;;0.60;99.90;;;;;;5055535;28;20025;-77
2022/01/11 08:41:03;;;;;;;140.38;62.47;;;0.60;99.90;;;;;;5055550;28;20055;-78
2022/01/11 08:43:29;;;;;;;229.60;101.85;;;0.60;99.90;;;;;;5055338;28;20365;-77
2022/01/11 08:45:55;;;;;;;140.48;63.92;;;0.70;99.90;;;;;;5055426;28;20025;-77
2022/01/11 08:48:21;;;;;;;89.60;40.95;;;0.60;99.90;;;;;;5055333;28;20100;-77
2022/01/11 08:50:47;;;;;;;96.45;46.05;;;0.60;99.90;;;;;;5055376;28;20032;-77
2022/01/11 08:53:13;;;;;;;107.45;50.25;;;0.60;99.90;;;;;;5055153;28;20026;-77
2022/01/11 08:55:39;;;;;;;95.38;43.33;;;0.70;99.90;;;;;;5055806;28;20036;-77
2022/01/11 08:58:05;;;;;;;86.38;42.20;;;0.70;99.90;;;;;;5055370;28;20029;-77
2022/01/11 09:00:30;;;;;;;109.68;47.72;;;0.70;99.90;;;;;;5055274;28;20079;-77
2022/01/11 09:02:56;;;;;;;106.45;46.28;;;0.60;99.90;;;;;;5055373;28;20079;-78
2022/01/11 09:05:22;;;;;;;90.55;40.97;;;0.60;99.90;;;;;;5054751;28;20040;-77
2022/01/11 09:07:49;;;;;;;90.38;41.83;;;0.60;99.90;;;;;;5054940;28;20021;-77
2022/01/11 09:10:15;;;;;;;113.82;50.70;;;0.70;99.90;;;;;;5055039;28;20529;-77
2022/01/11 09:12:41;;;;;;;132.50;57.80;;;0.70;99.90;;;;;;5055189;28;20060;-77
2022/01/11 09:15:09;;;;;;;119.95;58.40;;;0.60;99.90;;;;;;5055262;28;20372;-78
2022/01/11 09:17:35;;;;;;;105.97;48.42;;;0.60;99.90;;;;;;5055051;28;20107;-77
2022/01/11 09:20:02;;;;;;;115.38;55.28;;;0.60;99.90;;;;;;5054773;28;20025;-78
2022/01/11 09:22:28;;;;;;;115.75;52.67;;;0.50;99.90;;;;;;5054763;28;20037;-78
2022/01/11 09:24:55;;;;;;;132.43;60.47;;;0.50;99.90;;;;;;5054675;28;20021;-78
2022/01/11 09:27:21;;;;;;;109.65;54.13;;;0.50;99.90;;;;;;5053720;28;20444;-78
2022/01/11 09:29:47;;;;;;;128.02;60.45;;;0.50;99.90;;;;;;5054725;28;20492;-78
2022/01/11 09:32:14;;;;;;;92.53;44.28;;;0.50;99.90;;;;;;5054544;28;20021;-79
2022/01/11 09:34:41;;;;;;;105.78;50.70;;;0.40;99.90;;;;;;5054720;28;20123;-78
2022/01/11 09:37:08;;;;;;;142.85;67.57;;;0.40;99.90;;;;;;5054529;28;20108;-77
2022/01/11 09:39:36;;;;;;;112.00;50.95;;;0.50;99.90;;;;;;5054001;28;20033;-78
2022/01/11 09:42:05;;;;;;;111.68;51.05;;;0.40;99.90;;;;;;5052908;28;20472;-77
2022/01/11 09:44:33;;;;;;;118.90;56.65;;;0.50;99.90;;;;;;5054234;28;20059;-78
2022/01/11 09:46:59;;;;;;;103.05;49.88;;;0.50;99.90;;;;;;5054205;28;20032;-77
2022/01/11 09:49:25;;;;;;;77.90;35.88;;;0.60;99.90;;;;;;5054076;28;20025;-78
2022/01/11 09:51:52;;;;;;;79.32;38.20;;;0.50;99.90;;;;;;5052479;28;20036;-78
2022/01/11 09:54:21;;;;;;;94.25;43.50;;;0.60;99.90;;;;;;5042828;28;20068;-78
2022/01/11 09:56:47;;;;;;;73.28;35.58;;;0.60;99.90;;;;;;5034357;28;20508;-78
2022/01/11 09:59:14;;;;;;;70.90;34.30;;;0.60;99.90;;;;;;5038641;28;20112;-78
2022/01/11 10:01:40;;;;;;;80.13;36.47;;;0.60;99.90;;;;;;5042204;28;20071;-78
2022/01/11 10:04:16;;;;;;;104.03;44.30;;;0.70;99.90;;;;;;5044502;28;20033;-78
2022/01/11 10:06:51;;;;;;;91.82;41.63;;;0.80;99.90;;;;;;5046508;28;20032;-78
2022/01/11 10:09:20;;;;;;;76.35;36.88;;;0.80;99.90;;;;;;5052407;28;20029;-79
2022/01/11 10:11:50;;;;;;;84.05;42.08;;;0.80;99.90;;;;;;5053674;28;20021;-78
2022/01/11 10:14:22;;;;;;;104.72;49.53;;;0.90;99.90;;;;;;5053442;28;20029;-78
2022/01/11 10:16:49;;;;;;;116.25;59.63;;;0.80;99.90;;;;;;5053552;28;20059;-79
2022/01/11 10:19:28;;;;;;;127.30;60.58;;;0.80;99.90;;;;;;5053543;28;20078;-78
2022/01/11 10:21:55;;;;;;;105.07;47.67;;;0.90;99.90;;;;;;5052186;28;20483;-78
2022/01/11 10:24:39;;;;;;;121.85;53.10;;;0.90;99.90;;;;;;5052068;28;20037;-78
2022/01/11 10:27:15;;;;;;;101.60;43.90;;;0.90;99.90;;;;;;5052270;28;20078;-78
2022/01/11 10:30:17;;;;;;;104.07;47.70;;;0.80;99.90;;;;;;5053401;28;20024;-78
2022/01/11 10:32:47;;;;;;;95.23;44.40;;;0.90;99.90;;;;;;5053450;28;20039;-78
2022/01/11 10:35:18;;;;;;;89.25;38.53;;;0.90;99.90;;;;;;5052055;28;20350;-79
2022/01/11 10:37:47;;;;;;;91.53;42.38;;;0.80;99.90;;;;;;5053614;28;20425;-78
2022/01/11 10:40:16;;;;;;;75.55;37.35;;;0.80;99.90;;;;;;5053523;28;20025;-79
2022/01/11 10:42:49;;;;;;;106.25;48.00;;;0.90;99.90;;;;;;5052670;28;20385;-79
2022/01/11 10:45:24;;;;;;;93.70;42.05;;;0.80;99.90;;;;;;5053448;28;20471;-78
2022/01/11 10:47:53;;;;;;;102.10;46.28;;;0.90;99.90;;;;;;5053562;28;20025;-78
2022/01/11 10:50:27;;;;;;;99.05;48.05;;;0.90;99.90;;;;;;5053121;28;20021;-78
2022/01/11 10:52:54;;;;;;;110.88;50.75;;;0.90;99.90;;;;;;5053360;28;20112;-78
2022/01/11 10:55:22;;;;;;;240.95;95.55;;;1.00;99.90;;;;;;5053075;28;20051;-78
2022/01/11 10:57:51;;;;;;;114.20;49.33;;;1.00;99.90;;;;;;5050938;28;20025;-78
2022/01/11 11:00:22;;;;;;;186.30;79.43;;;0.80;99.90;;;;;;5033312;28;20033;-78
2022/01/11 11:02:58;;;;;;;211.90;90.00;;;0.90;99.90;;;;;;5032910;28;20030;-78
2022/01/11 11:05:30;;;;;;;174.65;71.75;;;1.00;99.90;;;;;;5036297;28;20117;-78
2022/01/11 11:08:01;;;;;;;92.25;44.97;;;1.10;99.90;;;;;;5035832;28;20026;-78
2022/01/11 11:10:38;;;;;;;93.85;44.35;;;1.10;99.90;;;;;;5036834;28;20029;-78
2022/01/11 11:13:06;;;;;;;84.97;42.60;;;1.20;99.90;;;;;;5037300;28;20022;-78
2022/01/11 11:15:37;;;;;;;104.05;48.80;;;1.20;99.90;;;;;;5037161;28;20025;-78
2022/01/11 11:18:06;;;;;;;97.90;46.70;;;1.20;99.90;;;;;;5037123;28;20163;-78
2022/01/11 11:20:34;;;;;;;87.85;41.83;;;1.10;99.90;;;;;;5036792;28;20040;-78
2022/01/11 11:23:03;;;;;;;105.60;50.05;;;1.10;99.90;;;;;;5037178;28;20033;-78
2022/01/11 11:25:29;;;;;;;82.25;38.30;;;1.20;99.90;;;;;;5036524;28;20108;-78
2022/01/11 11:27:55;;;;;;;91.35;43.00;;;1.20;99.90;;;;;;5036616;28;20036;-78
2022/01/11 11:30:21;;;;;;;85.28;42.28;;;1.20;99.90;;;;;;5036596;28;20025;-78
2022/01/11 11:32:50;;;;;;;90.97;44.13;;;1.20;99.90;;;;;;5036732;28;20025;-78
2022/01/11 11:35:16;;;;;;;94.90;46.40;;;1.00;99.90;;;;;;5036772;28;20036;-78
2022/01/11 11:37:46;;;;;;;97.43;45.95;;;1.00;99.90;;;;;;5036299;28;20033;-78
2022/01/11 11:40:31;;;;;;;112.43;50.42;;;0.90;99.90;;;;;;5036766;28;20022;-78
2022/01/11 11:43:00;;;;;;;115.18;51.08;;;0.80;99.90;;;;;;5036365;28;20084;-78
2022/01/11 11:45:31;;;;;;;95.50;45.10;;;0.80;99.90;;;;;;5053543;28;20027;-79
2022/01/11 11:48:11;;;;;;;93.10;44.70;;;0.80;99.90;;;;;;5056540;28;20033;-78
2022/01/11 11:50:53;;;;;;;156.32;64.93;;;0.80;99.90;;;;;;5056428;28;20029;-78
2022/01/11 11:53:36;;;;;;;105.05;46.00;;;0.70;99.90;;;;;;5056235;28;20142;-78
2022/01/11 11:56:17;;;;;;;126.60;49.97;;;0.70;99.90;;;;;;5056359;28;20032;-79
2022/01/11 11:58:46;;;;;;;86.10;45.63;;;0.80;99.90;;;;;;5056149;28;20103;-79
2022/01/11 12:01:58;;;;;;;70.63;34.30;;;0.90;99.90;;;;;;5055037;28;20025;-79
2022/01/11 12:04:30;;;;;;;89.05;41.25;;;0.90;99.90;;;;;;5054735;28;20515;-80
2022/01/11 12:07:00;;;;;;;116.82;49.63;;;1.00;99.90;;;;;;5054817;28;20080;-80
2022/01/11 12:09:32;;;;;;;96.72;44.90;;;0.90;99.90;;;;;;5054693;28;20036;-80
2022/01/11 12:11:59;;;;;;;113.15;46.63;;;1.00;99.90;;;;;;5055003;28;20029;-81
2022/01/11 12:14:29;;;;;;;108.50;45.70;;;1.00;99.90;;;;;;5055539;28;20031;-80
2022/01/11 12:16:57;;;;;;;137.65;57.75;;;1.00;99.90;;;;;;5055474;28;20017;-81
2022/01/11 12:19:43;;;;;;;77.03;38.08;;;1.00;99.90;;;;;;5055972;28;20548;-81
2022/01/11 12:22:08;;;;;;;173.50;71.60;;;1.00;99.90;;;;;;5055404;28;20030;-81
2022/01/11 12:24:39;;;;;;;167.77;71.05;;;1.00;99.90;;;;;;5055756;28;20037;-81
2022/01/11 12:27:09;;;;;;;235.27;93.07;;;1.00;99.90;;;;;;5055991;28;20035;-81
2022/01/11 12:29:35;;;;;;;98.55;46.72;;;1.10;99.90;;;;;;5055757;28;20029;-80
2022/01/11 12:32:05;;;;;;;90.40;41.22;;;1.00;99.90;;;;;;5055603;28;20021;-80
2022/01/11 12:34:46;;;;;;;85.97;41.50;;;0.80;99.90;;;;;;5055181;28;20029;-79
2022/01/11 12:37:22;;;;;;;84.95;37.90;;;0.90;99.90;;;;;;5054511;28;20029;-79
2022/01/11 12:40:12;;;;;;;105.65;49.17;;;0.90;99.90;;;;;;5055346;28;20032;-79
2022/01/11 12:42:50;;;;;;;76.95;37.63;;;0.90;99.90;;;;;;5055013;28;20045;-80